createdAt,value
2022-12-14T00:01:09.592Z,100485.94
2022-12-14T00:03:11.823Z,100485.06
2022-12-14T00:05:13.476Z,100479.06
2022-12-14T00:07:15.022Z,100473.75
2022-12-14T00:09:16.636Z,100475.56
2022-12-14T00:11:21.244Z,100473.84
2022-12-14T00:13:22.849Z,100454.75
2022-12-14T00:15:24.425Z,100468.63
2022-12-14T00:17:26.098Z,100465.22
2022-12-14T00:19:27.939Z,100465.22
2022-12-14T00:21:29.716Z,100458.28
2022-12-14T00:23:37.148Z,100464.34
2022-12-14T00:25:40.894Z,100449.59
2022-12-14T00:27:45.179Z,100433.97
2022-12-14T00:29:46.758Z,100449.59
2022-12-14T00:31:49.601Z,100446.09
2022-12-14T00:33:51.858Z,100417.44
2022-12-14T00:35:53.405Z,100452.16
2022-12-14T00:37:54.955Z,100453.91
2022-12-14T00:39:58.761Z,100446.09
2022-12-14T00:42:00.707Z,100441.75
2022-12-14T00:44:03.817Z,100453.13
2022-12-14T00:46:05.733Z,100453.09
2022-12-14T00:48:07.342Z,100429.75
2022-12-14T00:50:11.372Z,100447.09
2022-12-14T00:52:12.965Z,100450.56
2022-12-14T00:54:14.836Z,100454.91
2022-12-14T00:56:18.588Z,100458.38
2022-12-14T00:58:22.293Z,100452.25
2022-12-14T01:00:27.177Z,100446.19
2022-12-14T01:02:28.991Z,100454.00
2022-12-14T01:04:30.444Z,100450.50
2022-12-14T01:06:32.008Z,100448.81
2022-12-14T01:08:33.619Z,100459.16
2022-12-14T01:10:38.986Z,100451.41
2022-12-14T01:12:40.538Z,100446.19
2022-12-14T01:14:44.542Z,100443.59
2022-12-14T01:16:47.573Z,100434.03
2022-12-14T01:18:49.090Z,100431.44
2022-12-14T01:20:50.669Z,100442.78
2022-12-14T01:22:54.262Z,100421.09
2022-12-14T01:24:55.911Z,100434.09
2022-12-14T01:26:57.721Z,100427.16
2022-12-14T01:28:59.517Z,100427.16
2022-12-14T01:31:09.176Z,100420.22
2022-12-14T01:33:12.166Z,100428.91
2022-12-14T01:35:14.204Z,100434.09
2022-12-14T01:37:16.245Z,100435.84
2022-12-14T01:39:17.888Z,100441.91
2022-12-14T01:41:26.564Z,100435.84
2022-12-14T01:43:45.881Z,100429.72
2022-12-14T01:45:53.463Z,100427.97
2022-12-14T01:47:58.622Z,100428.03
2022-12-14T01:50:06.574Z,100421.94
2022-12-14T01:52:12.557Z,100431.50
2022-12-14T01:54:15.146Z,100404.63
2022-12-14T01:56:17.483Z,100411.53
2022-12-14T01:58:20.971Z,100421.09
2022-12-14T02:00:22.516Z,100416.75
2022-12-14T02:02:26.064Z,100418.47
2022-12-14T02:04:28.258Z,100417.63
2022-12-14T02:06:33.729Z,100409.81
2022-12-14T02:08:37.116Z,100418.50
2022-12-14T02:10:38.797Z,100420.22
2022-12-14T02:12:45.215Z,100419.34
2022-12-14T02:14:47.650Z,100415.00
2022-12-14T02:16:50.921Z,100415.88
2022-12-14T02:18:52.427Z,100416.75
2022-12-14T02:21:14.315Z,100412.44
2022-12-14T02:23:40.746Z,100410.69
2022-12-14T02:26:02.085Z,100415.91
2022-12-14T02:28:24.989Z,100415.88
2022-12-14T02:30:33.603Z,100415.88
2022-12-14T02:33:07.494Z,100420.22
2022-12-14T02:35:17.378Z,100407.22
2022-12-14T02:37:25.379Z,100415.88
2022-12-14T02:39:41.978Z,100418.47
2022-12-14T02:41:53.273Z,100413.28
2022-12-14T02:44:04.938Z,100402.00
2022-12-14T02:46:15.569Z,100407.22
2022-12-14T02:48:21.390Z,100402.88
2022-12-14T02:50:29.508Z,100403.75
2022-12-14T02:52:40.617Z,100409.81
2022-12-14T02:54:49.876Z,100402.88
2022-12-14T02:56:56.266Z,100401.16
2022-12-14T02:58:58.182Z,100408.97
2022-12-14T03:00:59.748Z,100409.81
2022-12-14T03:03:05.015Z,100401.13
2022-12-14T03:05:07.546Z,100396.81
2022-12-14T03:07:29.458Z,100400.28
2022-12-14T03:09:32.455Z,100383.81
2022-12-14T03:11:39.833Z,100387.28
2022-12-14T03:13:49.106Z,100389.03
2022-12-14T03:15:55.569Z,100396.81
2022-12-14T03:18:01.343Z,100385.56
2022-12-14T03:20:10.512Z,100387.28
2022-12-14T03:22:18.200Z,100390.75
2022-12-14T03:24:25.308Z,100385.56
2022-12-14T03:26:32.898Z,100379.50
2022-12-14T03:28:40.874Z,100386.41
2022-12-14T03:31:04.316Z,100369.94
2022-12-14T03:33:10.127Z,100370.81
2022-12-14T03:35:17.512Z,100373.41
2022-12-14T03:37:26.391Z,100356.09
2022-12-14T03:39:31.215Z,100362.16
2022-12-14T03:41:40.993Z,100363.03
2022-12-14T03:43:54.036Z,100367.31
2022-12-14T03:46:04.205Z,100367.31
2022-12-14T03:48:14.314Z,100364.69
2022-12-14T03:50:22.856Z,100362.16
2022-12-14T03:52:31.117Z,100369.09
2022-12-14T03:54:41.390Z,100362.16
2022-12-14T03:56:52.925Z,100356.09
2022-12-14T03:59:05.702Z,100356.91
2022-12-14T04:01:13.740Z,100347.38
2022-12-14T04:03:23.472Z,100346.50
2022-12-14T04:05:33.420Z,100350.84
2022-12-14T04:07:41.349Z,100344.81
2022-12-14T04:09:48.691Z,100347.31
2022-12-14T04:11:56.431Z,100342.16
2022-12-14T04:14:04.372Z,100317.84
2022-12-14T04:16:11.374Z,100335.19
2022-12-14T04:18:19.365Z,100336.94
2022-12-14T04:20:26.211Z,100333.41
2022-12-14T04:22:33.494Z,100328.09
2022-12-14T04:24:40.141Z,100339.53
2022-12-14T04:26:48.904Z,100336.94
2022-12-14T04:28:54.417Z,100336.81
2022-12-14T04:30:59.729Z,100334.34
2022-12-14T04:33:05.642Z,100328.31
2022-12-14T04:35:13.944Z,100325.69
2022-12-14T04:37:18.682Z,100320.47
2022-12-14T04:39:30.979Z,100322.94
2022-12-14T04:41:36.227Z,100310.84
2022-12-14T04:43:42.700Z,100317.69
2022-12-14T04:45:50.456Z,100287.41
2022-12-14T04:48:00.345Z,100315.28
2022-12-14T04:50:05.426Z,100317.91
2022-12-14T04:52:12.480Z,100300.59
2022-12-14T04:54:19.521Z,100303.19
2022-12-14T04:56:26.605Z,100301.44
2022-12-14T04:58:30.664Z,100312.72
2022-12-14T05:00:37.640Z,100306.66
2022-12-14T05:02:53.230Z,100314.47
2022-12-14T05:05:00.810Z,100302.31
2022-12-14T05:07:11.023Z,100293.66
2022-12-14T05:09:18.263Z,100288.44
2022-12-14T05:13:49.933Z,100293.66
2022-12-14T05:15:54.547Z,100297.13
2022-12-14T05:17:56.724Z,100290.19
2022-12-14T05:19:58.279Z,100276.34
2022-12-14T05:22:06.079Z,100268.53
2022-12-14T05:24:08.262Z,100285.84
2022-12-14T05:26:09.789Z,100284.94
2022-12-14T05:28:13.088Z,100272.84
2022-12-14T05:30:14.758Z,100271.13
2022-12-14T05:32:16.317Z,100271.16
2022-12-14T05:34:17.917Z,100267.69
2022-12-14T05:36:19.668Z,100247.75
2022-12-14T05:38:21.214Z,100266.81
2022-12-14T05:40:22.697Z,100264.22
2022-12-14T05:42:24.602Z,100264.22
2022-12-14T05:44:27.335Z,100259.81
2022-12-14T05:46:28.860Z,100252.06
2022-12-14T05:48:30.664Z,100245.16
2022-12-14T05:50:32.215Z,100238.22
2022-12-14T05:52:33.902Z,100241.56
2022-12-14T05:54:35.465Z,100231.25
2022-12-14T05:56:36.991Z,100222.59
2022-12-14T05:58:39.186Z,100226.91
2022-12-14T06:00:42.297Z,100222.63
2022-12-14T06:02:43.857Z,100221.78
2022-12-14T06:04:45.551Z,100225.25
2022-12-14T06:06:47.212Z,100215.72
2022-12-14T06:08:48.883Z,100222.66
2022-12-14T06:10:50.434Z,100220.88
2022-12-14T06:12:52.049Z,100224.31
2022-12-14T06:14:54.638Z,100226.91
2022-12-14T06:16:57.505Z,100228.66
2022-12-14T06:19:01.413Z,100220.88
2022-12-14T06:21:03.042Z,100224.41
2022-12-14T06:23:04.593Z,100208.81
2022-12-14T06:25:07.040Z,100220.06
2022-12-14T06:27:08.613Z,100218.34
2022-12-14T06:29:14.603Z,100207.94
2022-12-14T06:31:18.078Z,100202.75
2022-12-14T06:33:21.174Z,100205.34
2022-12-14T06:35:22.921Z,100211.41
2022-12-14T06:37:24.656Z,100210.53
2022-12-14T06:39:26.231Z,100195.81
2022-12-14T06:41:27.694Z,100209.69
2022-12-14T06:43:29.620Z,100201.88
2022-12-14T06:45:31.528Z,100208.81
2022-12-14T06:47:33.051Z,100197.56
2022-12-14T06:49:36.210Z,100201.88
2022-12-14T06:51:39.426Z,100207.09
2022-12-14T06:53:41.092Z,100196.69
2022-12-14T06:55:42.727Z,100192.38
2022-12-14T06:57:44.330Z,100195.81
2022-12-14T06:59:45.856Z,100194.97
2022-12-14T07:01:49.969Z,100196.69
2022-12-14T07:03:53.557Z,100195.81
2022-12-14T07:05:57.389Z,100194.09
2022-12-14T07:07:58.940Z,100191.50
2022-12-14T07:10:01.525Z,100189.78
2022-12-14T07:12:03.226Z,100191.50
2022-12-14T07:14:04.867Z,100194.91
2022-12-14T07:16:07.991Z,100195.75
2022-12-14T07:18:09.528Z,100187.97
2022-12-14T07:20:11.465Z,100182.78
2022-12-14T07:22:14.531Z,100178.47
2022-12-14T07:24:16.162Z,100186.31
2022-12-14T07:26:19.672Z,100188.91
2022-12-14T07:28:21.220Z,100148.22
2022-12-14T07:30:22.742Z,100178.53
2022-12-14T07:32:24.584Z,100167.25
2022-12-14T07:34:26.505Z,100162.03
2022-12-14T07:36:28.776Z,100162.91
2022-12-14T07:38:31.937Z,100160.28
2022-12-14T07:40:33.911Z,100155.97
2022-12-14T07:42:35.454Z,100155.13
2022-12-14T07:44:37.165Z,100165.50
2022-12-14T07:46:39.858Z,100155.94
2022-12-14T07:48:44.264Z,100159.44
2022-12-14T07:50:45.968Z,100156.81
2022-12-14T07:52:47.716Z,100160.28
2022-12-14T07:54:50.620Z,100165.44
2022-12-14T07:56:52.226Z,100160.28
2022-12-14T07:58:54.940Z,100161.13
2022-12-14T08:00:56.499Z,100167.22
2022-12-14T08:02:58.050Z,100168.09
2022-12-14T08:04:59.642Z,100169.81
2022-12-14T08:07:01.157Z,100153.34
2022-12-14T08:09:03.824Z,100162.78
2022-12-14T08:11:07.535Z,100163.75
2022-12-14T08:13:09.082Z,100156.81
2022-12-14T08:15:10.757Z,100163.66
2022-12-14T08:17:12.357Z,100163.66
2022-12-14T08:19:13.905Z,100163.66
2022-12-14T08:21:15.450Z,100161.91
2022-12-14T08:23:17.028Z,100149.78
2022-12-14T08:25:18.572Z,100154.06
2022-12-14T08:27:21.497Z,100159.34
2022-12-14T08:29:23.043Z,100151.53
2022-12-14T08:31:26.167Z,100148.00
2022-12-14T08:33:28.155Z,100139.38
2022-12-14T08:35:32.498Z,100142.91
2022-12-14T08:37:34.290Z,100135.84
2022-12-14T08:39:35.881Z,100137.56
2022-12-14T08:41:37.420Z,100138.47
2022-12-14T08:43:41.057Z,100140.97
2022-12-14T08:45:42.922Z,100133.31
2022-12-14T08:47:44.585Z,100148.81
2022-12-14T08:49:46.218Z,100135.13
2022-12-14T08:51:47.918Z,100136.72
2022-12-14T08:53:49.837Z,100127.06
2022-12-14T08:55:51.199Z,100126.19
2022-12-14T08:57:52.870Z,100128.88
2022-12-14T09:00:03.477Z,100125.31
2022-12-14T09:02:05.483Z,100130.50
2022-12-14T09:04:08.611Z,100125.22
2022-12-14T09:06:12.312Z,100127.00
2022-12-14T09:08:13.866Z,100114.63
2022-12-14T09:10:15.675Z,100111.19
2022-12-14T09:12:17.262Z,100107.78
2022-12-14T09:14:18.823Z,100098.09
2022-12-14T09:16:24.111Z,100125.72
2022-12-14T09:18:25.817Z,100122.34
2022-12-14T09:20:27.448Z,100123.25
2022-12-14T09:22:29.344Z,100124.22
2022-12-14T09:24:30.705Z,100124.25
2022-12-14T09:26:32.238Z,100119.13
2022-12-14T09:28:36.531Z,100098.38
2022-12-14T09:30:38.068Z,100102.75
2022-12-14T09:32:41.159Z,100092.25
2022-12-14T09:34:42.998Z,100094.78
2022-12-14T09:36:44.832Z,100098.81
2022-12-14T09:38:51.115Z,100108.44
2022-12-14T09:40:57.310Z,100095.25
2022-12-14T09:43:05.837Z,100085.63
2022-12-14T09:45:14.121Z,100070.72
2022-12-14T09:47:18.733Z,100074.09
2022-12-14T09:49:26.910Z,100081.25
2022-12-14T09:51:36.858Z,100073.28
2022-12-14T09:53:39.967Z,100065.41
2022-12-14T09:55:44.104Z,100065.41
2022-12-14T09:57:48.888Z,100065.50
2022-12-14T09:59:52.678Z,100070.56
2022-12-14T10:02:31.512Z,100065.72
2022-12-14T10:04:41.644Z,100054.44
2022-12-14T10:06:51.225Z,100058.47
2022-12-14T10:09:00.396Z,100049.44
2022-12-14T10:11:09.462Z,100051.75
2022-12-14T10:13:24.297Z,100047.50
2022-12-14T10:15:32.301Z,100046.63
2022-12-14T10:17:46.338Z,100052.25
2022-12-14T10:19:53.406Z,100037.19
2022-12-14T10:22:00.017Z,100044.88
2022-12-14T10:24:04.538Z,100031.91
2022-12-14T10:26:11.355Z,100037.06
2022-12-14T10:28:17.324Z,100033.53
2022-12-14T10:30:20.187Z,100024.75
2022-12-14T10:32:25.959Z,100028.22
2022-12-14T10:34:30.509Z,100027.34
2022-12-14T10:36:39.402Z,100018.88
2022-12-14T10:38:49.315Z,100019.16
2022-12-14T10:40:55.117Z,100012.22
2022-12-14T10:43:11.423Z,100010.44
2022-12-14T10:45:40.408Z,100006.94
2022-12-14T10:47:47.426Z,100008.63
2022-12-14T10:49:56.269Z,99997.38
2022-12-14T10:52:03.894Z,100002.63
2022-12-14T10:54:12.288Z,99998.38
2022-12-14T10:56:18.747Z,99993.34
2022-12-14T10:58:20.401Z,99991.47
2022-12-14T11:00:23.822Z,99997.59
2022-12-14T11:02:28.494Z,99990.41
2022-12-14T11:04:35.158Z,99989.66
2022-12-14T11:06:36.866Z,99985.41
2022-12-14T11:08:43.574Z,99975.06
2022-12-14T11:11:06.968Z,99957.09
2022-12-14T11:13:18.938Z,99965.75
2022-12-14T11:15:25.839Z,99962.44
2022-12-14T11:17:36.740Z,99968.41
2022-12-14T11:19:38.612Z,99961.25
2022-12-14T11:21:40.714Z,99954.22
2022-12-14T11:23:56.870Z,99952.47
2022-12-14T11:26:03.818Z,99942.03
2022-12-14T11:28:17.289Z,99958.34
2022-12-14T11:30:19.509Z,99963.41
2022-12-14T11:32:24.779Z,99955.38
2022-12-14T11:34:33.152Z,99957.88
2022-12-14T11:36:40.069Z,99951.59
2022-12-14T11:38:41.663Z,99941.25
2022-12-14T11:40:45.661Z,99931.28
2022-12-14T11:42:49.270Z,99941.41
2022-12-14T11:44:54.894Z,99913.44
2022-12-14T11:47:05.590Z,99963.59
2022-12-14T11:49:20.848Z,99960.03
2022-12-14T11:51:22.551Z,99952.88
2022-12-14T11:53:26.423Z,99950.06
2022-12-14T11:55:29.188Z,99963.16
2022-12-14T11:57:35.294Z,99966.50
2022-12-14T11:59:39.522Z,99950.03
2022-12-14T12:01:41.226Z,99947.25
2022-12-14T12:03:46.873Z,99944.00
2022-12-14T12:05:49.611Z,99955.16
2022-12-14T12:07:54.185Z,99942.97
2022-12-14T12:10:00.002Z,99943.47
2022-12-14T12:12:01.879Z,99941.53
2022-12-14T12:14:14.064Z,99941.41
2022-12-14T12:16:18.042Z,99934.31
2022-12-14T12:18:24.520Z,99935.38
2022-12-14T12:20:30.688Z,99936.47
2022-12-14T12:22:32.470Z,99938.72
2022-12-14T12:24:55.138Z,99938.72
2022-12-14T12:27:03.274Z,99930.06
2022-12-14T12:29:14.149Z,99937.25
2022-12-14T12:31:22.736Z,99925.19
2022-12-14T12:33:32.029Z,99925.31
2022-12-14T12:35:39.891Z,99918.59
2022-12-14T12:37:45.816Z,99910.84
2022-12-14T12:39:55.422Z,99914.06
2022-12-14T12:42:09.258Z,99914.28
2022-12-14T12:44:24.028Z,99918.72
2022-12-14T12:46:29.891Z,99924.44
2022-12-14T12:48:37.406Z,99909.66
2022-12-14T12:50:44.781Z,99911.47
2022-12-14T12:53:03.212Z,99910.91
2022-12-14T12:55:13.743Z,99910.47
2022-12-14T12:57:17.211Z,99913.03
2022-12-14T12:59:23.079Z,99903.66
2022-12-14T13:01:33.327Z,99909.00
2022-12-14T13:03:39.287Z,99903.72
2022-12-14T13:05:47.857Z,99909.06
2022-12-14T13:07:53.331Z,99910.72
2022-12-14T13:10:05.512Z,99911.69
2022-12-14T13:12:17.743Z,99911.63
2022-12-14T13:14:28.633Z,99905.56
2022-12-14T13:16:33.435Z,99898.69
2022-12-14T13:18:59.636Z,99897.56
2022-12-14T13:21:16.910Z,99896.72
2022-12-14T13:23:44.273Z,99896.84
2022-12-14T13:25:49.889Z,99883.88
2022-12-14T13:28:10.163Z,99887.31
2022-12-14T13:30:45.602Z,99887.63
2022-12-14T13:33:03.583Z,99890.34
2022-12-14T13:35:23.072Z,99887.00
2022-12-14T13:37:42.403Z,99887.16
2022-12-14T13:40:07.487Z,99883.03
2022-12-14T13:42:20.033Z,99884.91
2022-12-14T13:44:53.947Z,99881.34
2022-12-14T13:47:01.810Z,99880.59
2022-12-14T13:49:07.024Z,99880.50
2022-12-14T13:51:23.998Z,99882.34
2022-12-14T13:53:28.711Z,99879.00
2022-12-14T13:55:34.110Z,99879.88
2022-12-14T13:57:35.817Z,99873.97
2022-12-14T13:59:42.447Z,99872.41
2022-12-14T14:01:56.386Z,99868.06
2022-12-14T14:04:23.799Z,99861.03
2022-12-14T14:06:38.383Z,99854.97
2022-12-14T14:08:44.398Z,99862.81
2022-12-14T14:10:47.582Z,99848.34
2022-12-14T14:12:49.656Z,99860.59
2022-12-14T14:14:58.389Z,99855.38
2022-12-14T14:17:06.607Z,99851.28
2022-12-14T14:19:19.805Z,99853.19
2022-12-14T14:22:06.342Z,99799.72
2022-12-14T14:24:21.797Z,99800.66
2022-12-14T14:26:31.317Z,99842.06
2022-12-14T14:28:33.927Z,99846.34
2022-12-14T14:30:39.996Z,99827.38
2022-12-14T14:32:42.601Z,99767.22
2022-12-14T14:34:51.808Z,99822.41
2022-12-14T14:36:54.869Z,99830.22
2022-12-14T14:39:00.972Z,99821.56
2022-12-14T14:41:19.216Z,99831.19
2022-12-14T14:43:30.518Z,99827.59
2022-12-14T14:45:41.577Z,99818.06
2022-12-14T14:47:43.173Z,99805.88
2022-12-14T14:49:50.360Z,99808.31
2022-12-14T14:51:51.899Z,99816.13
2022-12-14T14:55:06.602Z,99809.19
2022-12-14T14:56:49.866Z,99813.50
2022-12-14T14:59:12.258Z,99814.53
2022-12-14T15:01:27.719Z,99819.69
2022-12-14T15:03:43.124Z,99816.31
2022-12-14T15:05:45.096Z,99796.44
2022-12-14T15:07:46.791Z,99822.22
2022-12-14T15:09:55.065Z,99823.09
2022-12-14T15:12:00.829Z,99819.66
2022-12-14T15:14:13.795Z,99795.63
2022-12-14T15:16:29.943Z,99795.69
2022-12-14T15:18:32.179Z,99802.59
2022-12-14T15:20:35.217Z,99794.78
2022-12-14T15:22:42.109Z,99817.13
2022-12-14T15:24:45.128Z,99812.06
2022-12-14T15:26:46.882Z,99806.06
2022-12-14T15:28:54.586Z,99805.03
2022-12-14T15:30:57.939Z,99805.72
2022-12-14T15:33:03.783Z,99821.16
2022-12-14T15:35:08.466Z,99809.03
2022-12-14T15:37:25.353Z,99797.97
2022-12-14T15:39:35.258Z,99821.75
2022-12-14T15:41:36.885Z,99806.94
2022-12-14T15:43:43.446Z,99807.78
2022-12-14T15:45:50.373Z,99819.06
2022-12-14T15:47:52.340Z,99805.22
2022-12-14T15:50:00.505Z,99821.03
2022-12-14T15:52:03.814Z,99822.59
2022-12-14T15:54:07.235Z,99812.19
2022-12-14T15:56:18.928Z,99805.91
2022-12-14T15:58:30.163Z,99812.09
2022-12-14T16:00:33.147Z,99787.00
2022-12-14T16:02:36.438Z,99811.19
2022-12-14T16:04:38.260Z,99807.88
2022-12-14T16:06:44.162Z,99749.44
2022-12-14T16:08:55.626Z,99742.53
2022-12-14T16:11:00.086Z,99788.09
2022-12-14T16:13:06.373Z,99753.81
2022-12-14T16:15:17.672Z,99802.22
2022-12-14T16:17:24.649Z,99811.16
2022-12-14T16:19:45.053Z,99743.75
2022-12-14T16:22:13.061Z,99798.13
2022-12-14T16:24:22.439Z,99789.44
2022-12-14T16:26:26.057Z,99797.09
2022-12-14T16:28:30.407Z,99781.69
2022-12-14T16:30:33.157Z,99797.19
2022-12-14T16:32:34.863Z,99800.47
2022-12-14T16:34:37.903Z,99773.00
2022-12-14T16:36:39.709Z,99795.31
2022-12-14T16:38:54.993Z,99800.56
2022-12-14T16:40:58.974Z,99793.81
2022-12-14T16:43:00.709Z,99775.72
2022-12-14T16:45:02.415Z,99801.50
2022-12-14T16:47:48.526Z,99783.69
2022-12-14T16:49:57.552Z,99801.66
2022-12-14T16:52:08.851Z,99740.53
2022-12-14T16:54:23.563Z,99806.72
2022-12-14T16:56:28.250Z,99811.88
2022-12-14T16:58:30.193Z,99810.25
2022-12-14T17:00:32.483Z,99812.69
2022-12-14T17:02:39.685Z,99791.66
2022-12-14T17:04:42.637Z,99801.91
2022-12-14T17:06:49.024Z,99805.50
2022-12-14T17:08:50.675Z,99738.44
2022-12-14T17:10:52.421Z,99814.28
2022-12-14T17:12:56.562Z,99752.94
2022-12-14T17:14:58.345Z,99800.34
2022-12-14T17:17:01.750Z,99813.34
2022-12-14T17:19:04.919Z,99789.13
2022-12-14T17:21:08.631Z,99786.44
2022-12-14T17:23:17.654Z,99809.75
2022-12-14T17:25:20.542Z,99801.03
2022-12-14T17:27:22.438Z,99817.66
2022-12-14T17:29:26.050Z,99810.81
2022-12-14T17:31:27.886Z,99802.16
2022-12-14T17:33:31.098Z,99809.13
2022-12-14T17:35:32.997Z,99782.63
2022-12-14T17:37:36.627Z,99788.00
2022-12-14T17:39:39.835Z,99810.47
2022-12-14T17:41:43.944Z,99809.06
2022-12-14T17:43:50.989Z,99821.75
2022-12-14T17:45:56.883Z,99822.69
2022-12-14T17:47:58.588Z,99793.38
2022-12-14T17:50:00.172Z,99818.44
2022-12-14T17:52:03.328Z,99825.28
2022-12-14T17:54:05.868Z,99802.78
2022-12-14T17:56:08.792Z,99815.03
2022-12-14T17:58:10.616Z,99801.09
2022-12-14T18:00:16.214Z,99801.22
2022-12-14T18:02:26.508Z,99807.31
2022-12-14T18:04:28.258Z,99811.72
2022-12-14T18:06:29.971Z,99806.53
2022-12-14T18:08:31.822Z,99813.47
2022-12-14T18:10:33.413Z,99813.34
2022-12-14T18:12:36.479Z,99820.34
2022-12-14T18:14:38.083Z,99815.94
2022-12-14T18:16:39.663Z,99822.00
2022-12-14T18:18:42.939Z,99806.50
2022-12-14T18:20:51.666Z,99812.63
2022-12-14T18:22:53.785Z,99806.97
2022-12-14T18:24:55.665Z,99804.16
2022-12-14T18:26:57.244Z,99790.53
2022-12-14T18:29:00.140Z,99804.25
2022-12-14T18:31:05.049Z,99802.47
2022-12-14T18:33:06.964Z,99770.81
2022-12-14T18:35:15.801Z,99814.03
2022-12-14T18:37:22.859Z,99809.72
2022-12-14T18:39:25.427Z,99815.75
2022-12-14T18:41:27.223Z,99814.91
2022-12-14T18:43:29.730Z,99815.81
2022-12-14T18:45:34.586Z,99808.88
2022-12-14T18:47:43.492Z,99820.03
2022-12-14T18:49:45.087Z,99818.44
2022-12-14T18:51:46.685Z,99825.28
2022-12-14T18:53:49.542Z,99815.69
2022-12-14T18:55:51.685Z,99800.22
2022-12-14T18:57:55.740Z,99812.28
2022-12-14T18:59:57.427Z,99824.34
2022-12-14T19:02:00.563Z,99818.13
2022-12-14T19:04:02.372Z,99816.63
2022-12-14T19:06:34.946Z,99823.56
2022-12-14T19:08:27.535Z,99817.50
2022-12-14T19:10:31.721Z,99823.72
2022-12-14T19:12:33.624Z,99823.59
2022-12-14T19:14:35.136Z,99816.47
2022-12-14T19:16:36.945Z,99819.00
2022-12-14T19:18:39.845Z,99821.66
2022-12-14T19:20:41.479Z,99820.72
2022-12-14T19:22:43.754Z,99814.88
2022-12-14T19:24:50.623Z,99827.13
2022-12-14T19:26:53.893Z,99827.47
2022-12-14T19:28:55.692Z,99822.03
2022-12-14T19:30:58.405Z,99824.53
2022-12-14T19:33:00.145Z,99827.22
2022-12-14T19:35:03.546Z,99826.31
2022-12-14T19:37:05.269Z,99828.03
2022-12-14T19:39:07.015Z,99823.59
2022-12-14T19:41:11.435Z,99821.47
2022-12-14T19:43:13.548Z,99819.84
2022-12-14T19:45:15.413Z,99823.16
2022-12-14T19:47:16.839Z,99816.38
2022-12-14T19:49:18.679Z,99822.47
2022-12-14T19:51:21.774Z,99821.81
2022-12-14T19:53:24.172Z,99836.53
2022-12-14T19:55:25.867Z,99832.47
2022-12-14T19:57:27.474Z,99832.53
2022-12-14T19:59:29.192Z,99823.03
2022-12-14T20:01:30.878Z,99836.53
2022-12-14T20:03:33.280Z,99827.72
2022-12-14T20:05:35.195Z,99836.47
2022-12-14T20:07:43.753Z,99839.13
2022-12-14T20:09:45.930Z,99845.47
2022-12-14T20:11:47.545Z,99843.81
2022-12-14T20:13:53.265Z,99844.56
2022-12-14T20:15:58.977Z,99821.84
2022-12-14T20:18:00.759Z,99845.19
2022-12-14T20:20:04.728Z,99818.53
2022-12-14T20:22:07.549Z,99846.22
2022-12-14T20:24:11.783Z,99842.94
2022-12-14T20:26:16.465Z,99838.44
2022-12-14T20:28:20.997Z,99833.31
2022-12-14T20:30:22.899Z,99840.88
2022-12-14T20:32:24.473Z,99847.78
2022-12-14T20:34:27.991Z,99844.38
2022-12-14T20:36:33.278Z,99846.09
2022-12-14T20:38:35.683Z,99836.19
2022-12-14T20:40:39.390Z,99837.03
2022-12-14T20:42:41.359Z,99844.19
2022-12-14T20:44:43.231Z,99842.53
2022-12-14T20:46:51.188Z,99837.59
2022-12-14T20:48:53.791Z,99840.34
2022-12-14T20:50:59.374Z,99832.56
2022-12-14T20:53:01.442Z,99846.44
2022-12-14T20:55:03.402Z,99843.56
2022-12-14T20:57:06.519Z,99841.91
2022-12-14T20:59:08.708Z,99838.59
2022-12-14T21:01:11.923Z,99846.41
2022-12-14T21:03:14.075Z,99841.06
2022-12-14T21:05:16.127Z,99853.16
2022-12-14T21:07:21.410Z,99824.63
2022-12-14T21:09:27.704Z,99840.84
2022-12-14T21:11:30.014Z,99837.94
2022-12-14T21:13:33.718Z,99843.97
2022-12-14T21:15:35.827Z,99839.69
2022-12-14T21:17:37.476Z,99842.31
2022-12-14T21:19:40.298Z,99851.91
2022-12-14T21:21:45.509Z,99856.63
2022-12-14T21:23:49.904Z,99858.59
2022-12-14T21:25:51.469Z,99861.22
2022-12-14T21:27:53.285Z,99854.22
2022-12-14T21:29:56.333Z,99854.94
2022-12-14T21:31:58.170Z,99855.88
2022-12-14T21:33:59.910Z,99855.84
2022-12-14T21:36:04.079Z,99853.66
2022-12-14T21:38:05.896Z,99851.00
2022-12-14T21:40:07.959Z,99852.97
2022-12-14T21:42:10.929Z,99867.72
2022-12-14T21:44:12.665Z,99867.56
2022-12-14T21:46:16.577Z,99871.09
2022-12-14T21:48:18.452Z,99858.69
2022-12-14T21:50:19.942Z,99860.72
2022-12-14T21:52:23.610Z,99840.56
2022-12-14T21:54:26.067Z,99862.13
2022-12-14T21:56:30.066Z,99870.31
2022-12-14T21:58:31.676Z,99870.16
2022-12-14T22:00:33.403Z,99872.09
2022-12-14T22:02:36.640Z,99868.72
2022-12-14T22:04:40.121Z,99877.56
2022-12-14T22:06:41.974Z,99874.28
2022-12-14T22:08:43.697Z,99873.50
2022-12-14T22:10:45.318Z,99881.06
2022-12-14T22:12:46.931Z,99878.59
2022-12-14T22:14:48.858Z,99870.75
2022-12-14T22:16:51.039Z,99874.06
2022-12-14T22:18:54.427Z,99872.41
2022-12-14T22:21:02.757Z,99869.16
2022-12-14T22:23:04.298Z,99873.41
2022-12-14T22:25:06.918Z,99879.38
2022-12-14T22:27:09.407Z,99883.91
2022-12-14T22:29:12.196Z,99878.84
2022-12-14T22:31:13.778Z,99885.72
2022-12-14T22:33:15.372Z,99883.16
2022-12-14T22:35:18.297Z,99890.16
2022-12-14T22:37:19.930Z,99882.47
2022-12-14T22:39:21.443Z,99883.16
2022-12-14T22:41:24.056Z,99882.25
2022-12-14T22:43:29.722Z,99885.03
2022-12-14T22:45:34.705Z,99878.09
2022-12-14T22:47:36.299Z,99877.19
2022-12-14T22:49:37.849Z,99877.31
2022-12-14T22:51:40.745Z,99882.50
2022-12-14T22:53:42.778Z,99854.03
2022-12-14T22:55:50.003Z,99877.25
2022-12-14T22:57:52.736Z,99885.91
2022-12-14T22:59:57.057Z,99897.16
2022-12-14T23:01:59.446Z,99893.72
2022-12-14T23:04:02.012Z,99891.00
2022-12-14T23:06:04.401Z,99889.34
2022-12-14T23:08:07.397Z,99890.22
2022-12-14T23:10:09.424Z,99889.28
2022-12-14T23:12:11.921Z,99886.69
2022-12-14T23:14:14.549Z,99890.22
2022-12-14T23:16:16.152Z,99884.16
2022-12-14T23:18:17.790Z,99890.16
2022-12-14T23:20:19.559Z,99880.59
2022-12-14T23:22:21.471Z,99884.97
2022-12-14T23:24:24.409Z,99885.75
2022-12-14T23:26:26.387Z,99888.31
2022-12-14T23:28:31.645Z,99888.22
2022-12-14T23:30:33.708Z,99890.00
2022-12-14T23:32:35.493Z,99898.66
2022-12-14T23:34:36.939Z,99890.91
2022-12-14T23:36:38.473Z,99893.53
2022-12-14T23:38:40.095Z,99886.59
2022-12-14T23:40:42.993Z,99894.47
2022-12-14T23:42:44.624Z,99893.44
2022-12-14T23:44:46.199Z,99894.25
2022-12-14T23:46:47.740Z,99893.44
2022-12-14T23:48:49.375Z,99890.84
2022-12-14T23:50:50.949Z,99900.59
2022-12-14T23:52:52.587Z,99870.22
2022-12-14T23:54:54.091Z,99892.78
2022-12-14T23:56:57.013Z,99893.63
2022-12-14T23:58:58.522Z,99892.81
